sensor_id;sensor_type;location;lat;lon;timestamp;pressure;altitude;pressure_sealevel;temperature;humidity
64862;BME280;62652;42.274;-71.436;2023-06-04T00:00:04;101430.0;;;10.277777777777779;unknown
64862;BME280;62652;42.274;-71.436;2023-06-04T00:01:01;101430.0;;;10.277777777777779;unknown
64862;BME280;62652;42.274;-71.436;2023-06-04T00:02:00;101420.0;;;10.222222222222221;unknown
64862;BME280;62652;42.274;-71.436;2023-06-04T00:03:00;101430.0;;;10.222222222222221;unknown
64862;BME280;62652;42.274;-71.436;2023-06-04T00:04:00;101420.0;;;10.222222222222221;unknown
64862;BME280;62652;42.274;-71.436;2023-06-04T00:05:01;101430.0;;;10.222222222222221;unknown
64862;BME280;62652;42.274;-71.436;2023-06-04T00:06:01;101430.0;;;10.111111111111112;unknown
64862;BME280;62652;42.274;-71.436;2023-06-04T00:07:01;101430.0;;;10.111111111111112;unknown
64862;BME280;62652;42.274;-71.436;2023-06-04T00:08:00;101430.0;;;10.111111111111112;unknown
64862;BME280;62652;42.274;-71.436;2023-06-04T00:09:01;101430.0;;;10.111111111111112;unknown
64862;BME280;62652;42.274;-71.436;2023-06-04T00:10:00;101430.0;;;10.111111111111112;unknown
64862;BME280;62652;42.274;-71.436;2023-06-04T00:11:01;101430.0;;;10.111111111111112;unknown
64862;BME280;62652;42.274;-71.436;2023-06-04T00:12:02;101420.0;;;10.111111111111112;unknown
64862;BME280;62652;42.274;-71.436;2023-06-04T00:13:00;101420.0;;;10.111111111111112;unknown
64862;BME280;62652;42.274;-71.436;2023-06-04T00:14:01;101420.0;;;10.111111111111112;unknown
64862;BME280;62652;42.274;-71.436;2023-06-04T00:15:01;101420.0;;;10.0;unknown
64862;BME280;62652;42.274;-71.436;2023-06-04T00:16:01;101430.0;;;10.111111111111112;unknown
64862;BME280;62652;42.274;-71.436;2023-06-04T00:17:00;101430.0;;;10.111111111111112;unknown
64862;BME280;62652;42.274;-71.436;2023-06-04T00:18:01;101430.0;;;10.111111111111112;unknown
64862;BME280;62652;42.274;-71.436;2023-06-04T00:19:01;101420.0;;;10.111111111111112;unknown
64862;BME280;62652;42.274;-71.436;2023-06-04T00:20:00;101430.0;;;10.111111111111112;unknown
64862;BME280;62652;42.274;-71.436;2023-06-04T00:21:00;101430.0;;;10.0;unknown
64862;BME280;62652;42.274;-71.436;2023-06-04T00:22:00;101430.0;;;10.0;unknown
64862;BME280;62652;42.274;-71.436;2023-06-04T00:23:00;101430.0;;;10.111111111111112;unknown
64862;BME280;62652;42.274;-71.436;2023-06-04T00:24:01;101430.0;;;10.111111111111112;unknown
64862;BME280;62652;42.274;-71.436;2023-06-04T00:25:00;101430.0;;;10.111111111111112;unknown
64862;BME280;62652;42.274;-71.436;2023-06-04T00:26:01;101430.0;;;10.111111111111112;unknown
64862;BME280;62652;42.274;-71.436;2023-06-04T00:27:00;101430.0;;;10.111111111111112;unknown
64862;BME280;62652;42.274;-71.436;2023-06-04T00:28:00;101430.0;;;10.111111111111112;unknown
64862;BME280;62652;42.274;-71.436;2023-06-04T00:29:00;101420.0;;;10.111111111111112;unknown
64862;BME280;62652;42.274;-71.436;2023-06-04T00:30:00;101430.0;;;10.111111111111112;unknown
64862;BME280;62652;42.274;-71.436;2023-06-04T00:31:04;101420.0;;;10.111111111111112;unknown
64862;BME280;62652;42.274;-71.436;2023-06-04T00:32:00;101420.0;;;10.111111111111112;unknown
64862;BME280;62652;42.274;-71.436;2023-06-04T00:33:01;101420.0;;;10.111111111111112;unknown
64862;BME280;62652;42.274;-71.436;2023-06-04T00:34:01;101420.0;;;10.111111111111112;unknown
64862;BME280;62652;42.274;-71.436;2023-06-04T00:35:01;101420.0;;;10.111111111111112;unknown
64862;BME280;62652;42.274;-71.436;2023-06-04T00:36:00;101420.0;;;10.111111111111112;unknown
64862;BME280;62652;42.274;-71.436;2023-06-04T00:37:01;101430.0;;;10.0;unknown
64862;BME280;62652;42.274;-71.436;2023-06-04T00:38:01;101430.0;;;10.0;unknown
64862;BME280;62652;42.274;-71.436;2023-06-04T00:39:00;101430.0;;;10.0;unknown
64862;BME280;62652;42.274;-71.436;2023-06-04T00:40:01;101430.0;;;10.0;unknown
64862;BME280;62652;42.274;-71.436;2023-06-04T00:41:00;101420.0;;;10.0;unknown
64862;BME280;62652;42.274;-71.436;2023-06-04T00:42:01;101420.0;;;10.0;unknown
64862;BME280;62652;42.274;-71.436;2023-06-04T00:43:00;101420.0;;;10.0;unknown
64862;BME280;62652;42.274;-71.436;2023-06-04T00:44:01;101420.0;;;10.0;unknown
64862;BME280;62652;42.274;-71.436;2023-06-04T00:45:01;101420.0;;;10.0;unknown
64862;BME280;62652;42.274;-71.436;2023-06-04T00:46:00;101420.0;;;10.0;unknown
64862;BME280;62652;42.274;-71.436;2023-06-04T00:47:01;101420.0;;;9.888888888888888;unknown
64862;BME280;62652;42.274;-71.436;2023-06-04T00:48:01;101430.0;;;10.0;unknown
64862;BME280;62652;42.274;-71.436;2023-06-04T00:49:01;101430.0;;;10.0;unknown
64862;BME280;62652;42.274;-71.436;2023-06-04T00:50:01;101430.0;;;10.111111111111112;unknown
64862;BME280;62652;42.274;-71.436;2023-06-04T00:51:01;101430.0;;;10.111111111111112;unknown
64862;BME280;62652;42.274;-71.436;2023-06-04T00:52:00;101430.0;;;10.111111111111112;unknown
64862;BME280;62652;42.274;-71.436;2023-06-04T00:53:01;101430.0;;;10.0;unknown
64862;BME280;62652;42.274;-71.436;2023-06-04T00:54:02;101440.0;;;10.0;unknown
64862;BME280;62652;42.274;-71.436;2023-06-04T00:55:00;101440.0;;;9.888888888888888;unknown
64862;BME280;62652;42.274;-71.436;2023-06-04T00:56:01;101440.0;;;9.888888888888888;unknown
64862;BME280;62652;42.274;-71.436;2023-06-04T00:57:00;101440.0;;;10.0;unknown
64862;BME280;62652;42.274;-71.436;2023-06-04T00:58:00;101440.0;;;10.0;unknown
64862;BME280;62652;42.274;-71.436;2023-06-04T00:59:00;101440.0;;;10.0;unknown
64862;BME280;62652;42.274;-71.436;2023-06-04T01:00:00;101440.0;;;10.0;unknown
64862;BME280;62652;42.274;-71.436;2023-06-04T01:01:04;101440.0;;;10.0;unknown
64862;BME280;62652;42.274;-71.436;2023-06-04T01:02:03;101440.0;;;10.0;unknown
64862;BME280;62652;42.274;-71.436;2023-06-04T01:03:05;101440.0;;;10.111111111111112;unknown
64862;BME280;62652;42.274;-71.436;2023-06-04T01:04:02;101440.0;;;10.111111111111112;unknown
64862;BME280;62652;42.274;-71.436;2023-06-04T01:05:04;101450.0;;;10.111111111111112;unknown
64862;BME280;62652;42.274;-71.436;2023-06-04T01:06:04;101440.0;;;10.111111111111112;unknown
64862;BME280;62652;42.274;-71.436;2023-06-04T01:07:04;101440.0;;;10.0;unknown
64862;BME280;62652;42.274;-71.436;2023-06-04T01:08:01;101440.0;;;10.0;unknown
64862;BME280;62652;42.274;-71.436;2023-06-04T01:09:01;101450.0;;;10.0;unknown
64862;BME280;62652;42.274;-71.436;2023-06-04T01:10:00;101440.0;;;9.888888888888888;unknown
64862;BME280;62652;42.274;-71.436;2023-06-04T01:11:00;101440.0;;;9.888888888888888;unknown
64862;BME280;62652;42.274;-71.436;2023-06-04T01:12:04;101440.0;;;9.888888888888888;unknown
64862;BME280;62652;42.274;-71.436;2023-06-04T01:13:01;101440.0;;;9.888888888888888;unknown
64862;BME280;62652;42.274;-71.436;2023-06-04T01:14:01;101440.0;;;9.888888888888888;unknown
64862;BME280;62652;42.274;-71.436;2023-06-04T01:15:01;101450.0;;;9.888888888888888;unknown
64862;BME280;62652;42.274;-71.436;2023-06-04T01:16:01;101440.0;;;9.888888888888888;unknown
64862;BME280;62652;42.274;-71.436;2023-06-04T01:17:02;101440.0;;;9.888888888888888;unknown
64862;BME280;62652;42.274;-71.436;2023-06-04T01:18:02;101450.0;;;9.888888888888888;unknown
64862;BME280;62652;42.274;-71.436;2023-06-04T01:19:02;101450.0;;;9.888888888888888;unknown
64862;BME280;62652;42.274;-71.436;2023-06-04T01:21:02;101450.0;;;9.888888888888888;unknown
64862;BME280;62652;42.274;-71.436;2023-06-04T01:22:04;101450.0;;;9.888888888888888;unknown
64862;BME280;62652;42.274;-71.436;2023-06-04T01:23:14;101450.0;;;9.888888888888888;unknown
64862;BME280;62652;42.274;-71.436;2023-06-04T01:24:01;101450.0;;;9.888888888888888;unknown
64862;BME280;62652;42.274;-71.436;2023-06-04T01:25:04;101450.0;;;9.888888888888888;unknown
64862;BME280;62652;42.274;-71.436;2023-06-04T01:26:02;101450.0;;;9.888888888888888;unknown
64862;BME280;62652;42.274;-71.436;2023-06-04T01:27:00;101450.0;;;9.888888888888888;unknown
64862;BME280;62652;42.274;-71.436;2023-06-04T01:28:01;101450.0;;;9.888888888888888;unknown
64862;BME280;62652;42.274;-71.436;2023-06-04T01:29:01;101440.0;;;9.777777777777779;unknown
64862;BME280;62652;42.274;-71.436;2023-06-04T01:30:01;101440.0;;;9.777777777777779;unknown
64862;BME280;62652;42.274;-71.436;2023-06-04T01:31:01;101440.0;;;9.777777777777779;unknown
64862;BME280;62652;42.274;-71.436;2023-06-04T01:32:01;101440.0;;;9.777777777777779;unknown
64862;BME280;62652;42.274;-71.436;2023-06-04T01:33:01;101440.0;;;9.777777777777779;unknown
64862;BME280;62652;42.274;-71.436;2023-06-04T01:34:01;101440.0;;;9.777777777777779;unknown
64862;BME280;62652;42.274;-71.436;2023-06-04T01:35:00;101440.0;;;9.777777777777779;unknown
64862;BME280;62652;42.274;-71.436;2023-06-04T01:36:00;101440.0;;;9.777777777777779;unknown
64862;BME280;62652;42.274;-71.436;2023-06-04T01:37:00;101440.0;;;9.777777777777779;unknown
64862;BME280;62652;42.274;-71.436;2023-06-04T01:38:01;101440.0;;;9.888888888888888;unknown
64862;BME280;62652;42.274;-71.436;2023-06-04T01:39:00;101440.0;;;9.888888888888888;unknown
64862;BME280;62652;42.274;-71.436;2023-06-04T01:40:01;101440.0;;;9.888888888888888;unknown
64862;BME280;62652;42.274;-71.436;2023-06-04T01:41:00;101440.0;;;9.888888888888888;unknown
64862;BME280;62652;42.274;-71.436;2023-06-04T01:42:00;101440.0;;;10.0;unknown
64862;BME280;62652;42.274;-71.436;2023-06-04T01:43:01;101430.0;;;10.0;unknown
64862;BME280;62652;42.274;-71.436;2023-06-04T01:44:00;101430.0;;;10.0;unknown
64862;BME280;62652;42.274;-71.436;2023-06-04T01:45:01;101430.0;;;10.0;unknown
64862;BME280;62652;42.274;-71.436;2023-06-04T01:46:01;101430.0;;;10.0;unknown
64862;BME280;62652;42.274;-71.436;2023-06-04T01:47:00;101420.0;;;10.111111111111112;unknown
64862;BME280;62652;42.274;-71.436;2023-06-04T01:48:02;101430.0;;;10.0;unknown
64862;BME280;62652;42.274;-71.436;2023-06-04T01:49:01;101430.0;;;10.0;unknown
64862;BME280;62652;42.274;-71.436;2023-06-04T01:50:00;101420.0;;;10.111111111111112;unknown
64862;BME280;62652;42.274;-71.436;2023-06-04T01:51:01;101420.0;;;10.0;unknown
64862;BME280;62652;42.274;-71.436;2023-06-04T01:52:00;101430.0;;;10.0;unknown
64862;BME280;62652;42.274;-71.436;2023-06-04T01:53:00;101430.0;;;9.888888888888888;unknown
64862;BME280;62652;42.274;-71.436;2023-06-04T01:54:00;101420.0;;;9.888888888888888;unknown
64862;BME280;62652;42.274;-71.436;2023-06-04T01:55:00;101420.0;;;9.888888888888888;unknown
64862;BME280;62652;42.274;-71.436;2023-06-04T01:56:01;101420.0;;;9.888888888888888;unknown
64862;BME280;62652;42.274;-71.436;2023-06-04T01:57:00;101420.0;;;9.888888888888888;unknown
64862;BME280;62652;42.274;-71.436;2023-06-04T01:58:01;101410.0;;;9.888888888888888;unknown
64862;BME280;62652;42.274;-71.436;2023-06-04T01:59:00;101420.0;;;9.777777777777779;unknown
64862;BME280;62652;42.274;-71.436;2023-06-04T02:00:01;101410.0;;;9.777777777777779;unknown
64862;BME280;62652;42.274;-71.436;2023-06-04T02:01:01;101410.0;;;9.777777777777779;unknown
64862;BME280;62652;42.274;-71.436;2023-06-04T02:02:00;101410.0;;;9.777777777777779;unknown
64862;BME280;62652;42.274;-71.436;2023-06-04T02:03:00;101410.0;;;9.777777777777779;unknown
64862;BME280;62652;42.274;-71.436;2023-06-04T02:04:00;101410.0;;;9.777777777777779;unknown
64862;BME280;62652;42.274;-71.436;2023-06-04T02:05:00;101410.0;;;9.888888888888888;unknown
64862;BME280;62652;42.274;-71.436;2023-06-04T02:06:00;101410.0;;;9.888888888888888;unknown
64862;BME280;62652;42.274;-71.436;2023-06-04T02:07:00;101410.0;;;9.888888888888888;unknown
64862;BME280;62652;42.274;-71.436;2023-06-04T02:08:00;101410.0;;;9.888888888888888;unknown
64862;BME280;62652;42.274;-71.436;2023-06-04T02:09:00;101410.0;;;9.888888888888888;unknown
64862;BME280;62652;42.274;-71.436;2023-06-04T02:10:01;101410.0;;;9.888888888888888;unknown
64862;BME280;62652;42.274;-71.436;2023-06-04T02:11:01;101410.0;;;9.888888888888888;unknown
64862;BME280;62652;42.274;-71.436;2023-06-04T02:12:01;101410.0;;;9.888888888888888;unknown
64862;BME280;62652;42.274;-71.436;2023-06-04T02:13:02;101410.0;;;9.888888888888888;unknown
64862;BME280;62652;42.274;-71.436;2023-06-04T02:14:01;101410.0;;;10.0;unknown
64862;BME280;62652;42.274;-71.436;2023-06-04T02:15:00;101410.0;;;10.0;unknown
64862;BME280;62652;42.274;-71.436;2023-06-04T02:16:01;101410.0;;;10.0;unknown
64862;BME280;62652;42.274;-71.436;2023-06-04T02:17:00;101400.0;;;10.0;unknown
64862;BME280;62652;42.274;-71.436;2023-06-04T02:18:12;101400.0;;;10.0;unknown
64862;BME280;62652;42.274;-71.436;2023-06-04T02:19:01;101400.0;;;10.0;unknown
64862;BME280;62652;42.274;-71.436;2023-06-04T02:20:01;101400.0;;;10.0;unknown
64862;BME280;62652;42.274;-71.436;2023-06-04T02:21:00;101400.0;;;9.888888888888888;unknown
64862;BME280;62652;42.274;-71.436;2023-06-04T02:22:01;101400.0;;;9.777777777777779;unknown
64862;BME280;62652;42.274;-71.436;2023-06-04T02:23:00;101400.0;;;9.777777777777779;unknown
64862;BME280;62652;42.274;-71.436;2023-06-04T02:24:00;101400.0;;;9.888888888888888;unknown
64862;BME280;62652;42.274;-71.436;2023-06-04T02:25:00;101400.0;;;9.888888888888888;unknown
64862;BME280;62652;42.274;-71.436;2023-06-04T02:26:01;101400.0;;;9.888888888888888;unknown
64862;BME280;62652;42.274;-71.436;2023-06-04T02:27:00;101400.0;;;9.888888888888888;unknown
64862;BME280;62652;42.274;-71.436;2023-06-04T02:28:01;101390.0;;;9.777777777777779;unknown
64862;BME280;62652;42.274;-71.436;2023-06-04T02:29:00;101390.0;;;9.888888888888888;unknown
64862;BME280;62652;42.274;-71.436;2023-06-04T02:30:00;101390.0;;;9.777777777777779;unknown
64862;BME280;62652;42.274;-71.436;2023-06-04T02:31:00;101380.0;;;9.777777777777779;unknown
64862;BME280;62652;42.274;-71.436;2023-06-04T02:32:01;101390.0;;;9.777777777777779;unknown
64862;BME280;62652;42.274;-71.436;2023-06-04T02:33:00;101390.0;;;9.777777777777779;unknown
64862;BME280;62652;42.274;-71.436;2023-06-04T02:34:01;101390.0;;;9.777777777777779;unknown
64862;BME280;62652;42.274;-71.436;2023-06-04T02:35:01;101380.0;;;9.777777777777779;unknown
64862;BME280;62652;42.274;-71.436;2023-06-04T02:36:01;101380.0;;;9.777777777777779;unknown
64862;BME280;62652;42.274;-71.436;2023-06-04T02:37:01;101380.0;;;9.777777777777779;unknown
64862;BME280;62652;42.274;-71.436;2023-06-04T02:38:01;101380.0;;;9.777777777777779;unknown
64862;BME280;62652;42.274;-71.436;2023-06-04T02:39:00;101370.0;;;9.777777777777779;unknown
64862;BME280;62652;42.274;-71.436;2023-06-04T02:40:00;101370.0;;;9.777777777777779;unknown
64862;BME280;62652;42.274;-71.436;2023-06-04T02:41:01;101370.0;;;9.777777777777779;unknown
64862;BME280;62652;42.274;-71.436;2023-06-04T02:42:00;101370.0;;;9.777777777777779;unknown
64862;BME280;62652;42.274;-71.436;2023-06-04T02:43:01;101370.0;;;9.777777777777779;unknown
64862;BME280;62652;42.274;-71.436;2023-06-04T02:44:00;101370.0;;;9.777777777777779;unknown
64862;BME280;62652;42.274;-71.436;2023-06-04T02:45:01;101370.0;;;9.777777777777779;unknown
64862;BME280;62652;42.274;-71.436;2023-06-04T02:46:00;101360.0;;;9.777777777777779;unknown
64862;BME280;62652;42.274;-71.436;2023-06-04T02:47:01;101370.0;;;9.777777777777779;unknown
64862;BME280;62652;42.274;-71.436;2023-06-04T02:48:01;101360.0;;;9.722222222222221;unknown
64862;BME280;62652;42.274;-71.436;2023-06-04T02:49:01;101360.0;;;9.777777777777779;unknown
64862;BME280;62652;42.274;-71.436;2023-06-04T02:50:01;101350.0;;;9.722222222222221;unknown
64862;BME280;62652;42.274;-71.436;2023-06-04T02:51:01;101350.0;;;9.722222222222221;unknown
64862;BME280;62652;42.274;-71.436;2023-06-04T02:52:00;101350.0;;;9.722222222222221;unknown
64862;BME280;62652;42.274;-71.436;2023-06-04T02:53:00;101350.0;;;9.722222222222221;unknown
64862;BME280;62652;42.274;-71.436;2023-06-04T02:54:00;101350.0;;;9.611111111111109;unknown
64862;BME280;62652;42.274;-71.436;2023-06-04T02:55:00;101340.0;;;9.611111111111109;unknown
64862;BME280;62652;42.274;-71.436;2023-06-04T02:56:00;101350.0;;;9.611111111111109;unknown
64862;BME280;62652;42.274;-71.436;2023-06-04T02:57:01;101350.0;;;9.611111111111109;unknown
64862;BME280;62652;42.274;-71.436;2023-06-04T02:58:00;101340.0;;;9.611111111111109;unknown
64862;BME280;62652;42.274;-71.436;2023-06-04T02:59:00;101350.0;;;9.611111111111109;unknown
64862;BME280;62652;42.274;-71.436;2023-06-04T03:00:00;101340.0;;;9.611111111111109;unknown
64862;BME280;62652;42.274;-71.436;2023-06-04T03:01:00;101340.0;;;9.611111111111109;unknown
64862;BME280;62652;42.274;-71.436;2023-06-04T03:02:00;101340.0;;;9.5;unknown
64862;BME280;62652;42.274;-71.436;2023-06-04T03:03:01;101340.0;;;9.611111111111109;unknown
64862;BME280;62652;42.274;-71.436;2023-06-04T03:04:00;101340.0;;;9.611111111111109;unknown
64862;BME280;62652;42.274;-71.436;2023-06-04T03:05:00;101340.0;;;9.611111111111109;unknown
64862;BME280;62652;42.274;-71.436;2023-06-04T03:06:01;101340.0;;;9.5;unknown
64862;BME280;62652;42.274;-71.436;2023-06-04T03:07:01;101350.0;;;9.5;unknown
64862;BME280;62652;42.274;-71.436;2023-06-04T03:08:01;101350.0;;;9.5;unknown
64862;BME280;62652;42.274;-71.436;2023-06-04T03:09:01;101350.0;;;9.5;unknown
64862;BME280;62652;42.274;-71.436;2023-06-04T03:10:00;101350.0;;;9.38888888888889;unknown
64862;BME280;62652;42.274;-71.436;2023-06-04T03:11:01;101350.0;;;9.38888888888889;unknown
64862;BME280;62652;42.274;-71.436;2023-06-04T03:12:01;101350.0;;;9.38888888888889;unknown
64862;BME280;62652;42.274;-71.436;2023-06-04T03:13:01;101350.0;;;9.38888888888889;unknown
64862;BME280;62652;42.274;-71.436;2023-06-04T03:14:00;101350.0;;;9.38888888888889;unknown
64862;BME280;62652;42.274;-71.436;2023-06-04T03:15:00;101350.0;;;9.38888888888889;unknown
64862;BME280;62652;42.274;-71.436;2023-06-04T03:16:01;101350.0;;;9.38888888888889;unknown
64862;BME280;62652;42.274;-71.436;2023-06-04T03:17:01;101350.0;;;9.5;unknown
64862;BME280;62652;42.274;-71.436;2023-06-04T03:18:00;101350.0;;;9.5;unknown
64862;BME280;62652;42.274;-71.436;2023-06-04T03:19:01;101350.0;;;9.38888888888889;unknown
64862;BME280;62652;42.274;-71.436;2023-06-04T03:20:00;101350.0;;;9.5;unknown
64862;BME280;62652;42.274;-71.436;2023-06-04T03:21:01;101340.0;;;9.5;unknown
64862;BME280;62652;42.274;-71.436;2023-06-04T03:22:01;101350.0;;;9.5;unknown
64862;BME280;62652;42.274;-71.436;2023-06-04T03:23:00;101350.0;;;9.5;unknown
64862;BME280;62652;42.274;-71.436;2023-06-04T03:24:01;101340.0;;;9.5;unknown
64862;BME280;62652;42.274;-71.436;2023-06-04T03:25:01;101340.0;;;9.611111111111109;unknown
64862;BME280;62652;42.274;-71.436;2023-06-04T03:26:01;101340.0;;;9.611111111111109;unknown
64862;BME280;62652;42.274;-71.436;2023-06-04T03:27:00;101340.0;;;9.611111111111109;unknown
64862;BME280;62652;42.274;-71.436;2023-06-04T03:28:01;101340.0;;;9.611111111111109;unknown
64862;BME280;62652;42.274;-71.436;2023-06-04T03:29:00;101340.0;;;9.611111111111109;unknown
64862;BME280;62652;42.274;-71.436;2023-06-04T03:30:01;101340.0;;;9.611111111111109;unknown
64862;BME280;62652;42.274;-71.436;2023-06-04T03:31:01;101340.0;;;9.611111111111109;unknown
64862;BME280;62652;42.274;-71.436;2023-06-04T03:32:01;101330.0;;;9.611111111111109;unknown
64862;BME280;62652;42.274;-71.436;2023-06-04T03:33:01;101330.0;;;9.611111111111109;unknown
64862;BME280;62652;42.274;-71.436;2023-06-04T03:34:01;101330.0;;;9.611111111111109;unknown
64862;BME280;62652;42.274;-71.436;2023-06-04T03:35:00;101330.0;;;9.611111111111109;unknown
64862;BME280;62652;42.274;-71.436;2023-06-04T03:36:00;101330.0;;;9.611111111111109;unknown
64862;BME280;62652;42.274;-71.436;2023-06-04T03:37:00;101330.0;;;9.611111111111109;unknown
64862;BME280;62652;42.274;-71.436;2023-06-04T03:38:01;101330.0;;;9.611111111111109;unknown
64862;BME280;62652;42.274;-71.436;2023-06-04T03:39:00;101330.0;;;9.5;unknown
64862;BME280;62652;42.274;-71.436;2023-06-04T03:40:01;101330.0;;;9.611111111111109;unknown
64862;BME280;62652;42.274;-71.436;2023-06-04T03:41:00;101330.0;;;9.611111111111109;unknown
64862;BME280;62652;42.274;-71.436;2023-06-04T03:42:01;101330.0;;;9.5;unknown
64862;BME280;62652;42.274;-71.436;2023-06-04T03:43:01;101330.0;;;9.5;unknown
64862;BME280;62652;42.274;-71.436;2023-06-04T03:44:00;101330.0;;;9.5;unknown
64862;BME280;62652;42.274;-71.436;2023-06-04T03:45:01;101320.0;;;9.5;unknown
64862;BME280;62652;42.274;-71.436;2023-06-04T03:46:00;101320.0;;;9.5;unknown
64862;BME280;62652;42.274;-71.436;2023-06-04T03:47:00;101320.0;;;9.5;unknown
64862;BME280;62652;42.274;-71.436;2023-06-04T03:48:01;101320.0;;;9.5;unknown
64862;BME280;62652;42.274;-71.436;2023-06-04T03:49:01;101320.0;;;9.5;unknown
64862;BME280;62652;42.274;-71.436;2023-06-04T03:50:01;101320.0;;;9.5;unknown
64862;BME280;62652;42.274;-71.436;2023-06-04T03:51:00;101320.0;;;9.5;unknown
64862;BME280;62652;42.274;-71.436;2023-06-04T03:52:01;101320.0;;;9.5;unknown
64862;BME280;62652;42.274;-71.436;2023-06-04T03:53:01;101320.0;;;9.5;unknown
64862;BME280;62652;42.274;-71.436;2023-06-04T03:54:01;101310.0;;;9.5;unknown
64862;BME280;62652;42.274;-71.436;2023-06-04T03:55:00;101310.0;;;9.38888888888889;unknown
64862;BME280;62652;42.274;-71.436;2023-06-04T03:56:01;101310.0;;;9.38888888888889;unknown
64862;BME280;62652;42.274;-71.436;2023-06-04T03:57:00;101300.0;;;9.38888888888889;unknown
64862;BME280;62652;42.274;-71.436;2023-06-04T03:58:00;101310.0;;;9.38888888888889;unknown
64862;BME280;62652;42.274;-71.436;2023-06-04T03:59:01;101310.0;;;9.5;unknown
64862;BME280;62652;42.274;-71.436;2023-06-04T04:00:01;101310.0;;;9.38888888888889;unknown
64862;BME280;62652;42.274;-71.436;2023-06-04T04:01:00;101310.0;;;9.38888888888889;unknown
64862;BME280;62652;42.274;-71.436;2023-06-04T04:02:01;101310.0;;;9.5;unknown
64862;BME280;62652;42.274;-71.436;2023-06-04T04:03:00;101310.0;;;9.5;unknown
64862;BME280;62652;42.274;-71.436;2023-06-04T04:04:01;101300.0;;;9.38888888888889;unknown
64862;BME280;62652;42.274;-71.436;2023-06-04T04:05:00;101300.0;;;9.38888888888889;unknown
64862;BME280;62652;42.274;-71.436;2023-06-04T04:06:01;101300.0;;;9.38888888888889;unknown
64862;BME280;62652;42.274;-71.436;2023-06-04T04:07:01;101300.0;;;9.38888888888889;unknown
64862;BME280;62652;42.274;-71.436;2023-06-04T04:08:00;101300.0;;;9.38888888888889;unknown
64862;BME280;62652;42.274;-71.436;2023-06-04T04:09:02;101300.0;;;9.5;unknown
64862;BME280;62652;42.274;-71.436;2023-06-04T04:10:00;101300.0;;;9.38888888888889;unknown
64862;BME280;62652;42.274;-71.436;2023-06-04T04:11:00;101300.0;;;9.5;unknown
64862;BME280;62652;42.274;-71.436;2023-06-04T04:12:00;101290.0;;;9.5;unknown
64862;BME280;62652;42.274;-71.436;2023-06-04T04:13:00;101290.0;;;9.5;unknown
64862;BME280;62652;42.274;-71.436;2023-06-04T04:14:01;101290.0;;;9.611111111111109;unknown
64862;BME280;62652;42.274;-71.436;2023-06-04T04:15:00;101290.0;;;9.611111111111109;unknown
64862;BME280;62652;42.274;-71.436;2023-06-04T04:16:01;101290.0;;;9.722222222222221;unknown
64862;BME280;62652;42.274;-71.436;2023-06-04T04:17:01;101290.0;;;9.722222222222221;unknown
64862;BME280;62652;42.274;-71.436;2023-06-04T04:18:01;101290.0;;;9.722222222222221;unknown
64862;BME280;62652;42.274;-71.436;2023-06-04T04:19:00;101290.0;;;9.722222222222221;unknown
64862;BME280;62652;42.274;-71.436;2023-06-04T04:20:01;101280.0;;;9.722222222222221;unknown
64862;BME280;62652;42.274;-71.436;2023-06-04T04:21:01;101280.0;;;9.722222222222221;unknown
64862;BME280;62652;42.274;-71.436;2023-06-04T04:22:00;101280.0;;;9.722222222222221;unknown
64862;BME280;62652;42.274;-71.436;2023-06-04T04:23:00;101280.0;;;9.777777777777779;unknown
64862;BME280;62652;42.274;-71.436;2023-06-04T04:24:00;101280.0;;;9.777777777777779;unknown
64862;BME280;62652;42.274;-71.436;2023-06-04T04:25:00;101280.0;;;9.777777777777779;unknown
64862;BME280;62652;42.274;-71.436;2023-06-04T04:26:01;101270.0;;;9.777777777777779;unknown
64862;BME280;62652;42.274;-71.436;2023-06-04T04:27:01;101270.0;;;9.777777777777779;unknown
64862;BME280;62652;42.274;-71.436;2023-06-04T04:28:00;101270.0;;;9.777777777777779;unknown
64862;BME280;62652;42.274;-71.436;2023-06-04T04:29:01;101270.0;;;9.722222222222221;unknown
64862;BME280;62652;42.274;-71.436;2023-06-04T04:30:00;101260.0;;;9.777777777777779;unknown
64862;BME280;62652;42.274;-71.436;2023-06-04T04:31:01;101260.0;;;9.722222222222221;unknown
64862;BME280;62652;42.274;-71.436;2023-06-04T04:32:02;101260.0;;;9.722222222222221;unknown
64862;BME280;62652;42.274;-71.436;2023-06-04T04:33:00;101260.0;;;9.611111111111109;unknown